createdAt,value
2019-02-28T00:00:08.936Z,0.00
2019-02-28T00:01:11.888Z,0.00
2019-02-28T00:02:08.841Z,0.00
2019-02-28T00:03:08.795Z,0.00
2019-02-28T00:04:08.747Z,0.00
2019-02-28T00:05:08.701Z,0.00
2019-02-28T00:06:11.783Z,0.00
2019-02-28T00:07:08.609Z,0.00
2019-02-28T00:08:08.566Z,0.00
2019-02-28T00:09:08.516Z,0.00
2019-02-28T00:10:08.471Z,0.00
2019-02-28T00:11:08.424Z,0.00
2019-02-28T00:12:10.229Z,0.00
2019-02-28T00:13:08.331Z,0.00
2019-02-28T00:14:08.285Z,0.00
2019-02-28T00:15:08.238Z,0.00
2019-02-28T00:16:08.191Z,0.00
2019-02-28T00:17:09.146Z,0.00
2019-02-28T00:18:08.100Z,0.00
2019-02-28T00:19:08.053Z,0.00
2019-02-28T00:20:08.008Z,0.00
2019-02-28T00:21:08.009Z,0.00
2019-02-28T00:22:07.914Z,0.00
2019-02-28T00:23:07.868Z,0.00
2019-02-28T00:24:07.822Z,0.00
2019-02-28T00:25:07.773Z,0.00
2019-02-28T00:26:11.284Z,0.00
2019-02-28T00:27:07.682Z,0.00
2019-02-28T00:28:07.636Z,0.00
2019-02-28T00:29:09.408Z,0.00
2019-02-28T00:30:07.545Z,0.00
2019-02-28T00:31:07.496Z,0.00
2019-02-28T00:32:07.451Z,0.00
2019-02-28T00:33:07.403Z,0.00
2019-02-28T00:34:07.356Z,0.00
2019-02-28T00:35:07.310Z,0.00
2019-02-28T00:36:07.263Z,0.00
2019-02-28T00:37:07.217Z,0.00
2019-02-28T00:38:07.171Z,0.00
2019-02-28T00:39:07.127Z,0.00
2019-02-28T00:40:07.605Z,0.00
2019-02-28T00:41:09.339Z,0.00
2019-02-28T00:42:06.985Z,0.00
2019-02-28T00:43:06.990Z,0.00
2019-02-28T00:44:06.892Z,0.00
2019-02-28T00:45:06.846Z,0.00
2019-02-28T00:46:07.216Z,0.00
2019-02-28T00:47:06.753Z,0.00
2019-02-28T00:48:06.706Z,0.00
2019-02-28T00:49:06.663Z,0.00
2019-02-28T00:50:06.614Z,0.00
2019-02-28T00:51:06.567Z,0.00
2019-02-28T00:52:06.520Z,0.00
2019-02-28T00:53:07.388Z,0.00
2019-02-28T00:54:08.597Z,0.00
2019-02-28T00:55:06.382Z,0.00
2019-02-28T00:56:06.333Z,0.00
2019-02-28T00:57:06.289Z,0.00
2019-02-28T00:58:06.242Z,0.00
2019-02-28T00:59:06.196Z,0.00
2019-02-28T01:00:06.392Z,0.00
2019-02-28T01:01:08.450Z,0.00
2019-02-28T01:02:06.066Z,0.00
2019-02-28T01:03:06.010Z,0.00
2019-02-28T01:04:05.966Z,0.00
2019-02-28T01:05:06.121Z,0.00
2019-02-28T01:06:09.705Z,0.00
2019-02-28T01:07:05.823Z,0.00
2019-02-28T01:08:05.777Z,0.00
2019-02-28T01:09:05.736Z,0.00
2019-02-28T01:10:05.685Z,0.00
2019-02-28T01:11:05.638Z,0.00
2019-02-28T01:12:05.591Z,0.00
2019-02-28T01:13:05.546Z,0.00
2019-02-28T01:14:05.499Z,0.00
2019-02-28T01:15:07.188Z,0.00
2019-02-28T01:16:05.406Z,0.00
2019-02-28T01:17:05.360Z,0.00
2019-02-28T01:18:05.635Z,0.00
2019-02-28T01:19:08.775Z,0.00
2019-02-28T01:20:05.219Z,0.00
2019-02-28T01:21:05.173Z,0.00
2019-02-28T01:22:05.127Z,0.00
2019-02-28T01:23:05.081Z,0.00
2019-02-28T01:24:05.034Z,0.00
2019-02-28T01:25:06.481Z,0.00
2019-02-28T01:26:04.941Z,0.00
2019-02-28T01:27:04.895Z,0.00
2019-02-28T01:28:04.848Z,0.00
2019-02-28T01:29:04.801Z,0.00
2019-02-28T01:30:06.687Z,0.00
2019-02-28T01:31:04.709Z,0.00
2019-02-28T01:32:04.664Z,0.00
2019-02-28T01:33:04.616Z,0.00
2019-02-28T01:34:04.570Z,0.00
2019-02-28T01:35:06.795Z,0.00
2019-02-28T01:36:04.477Z,0.00
2019-02-28T01:37:04.431Z,0.00
2019-02-28T01:38:04.388Z,0.00
2019-02-28T01:39:04.338Z,0.00
2019-02-28T01:40:05.241Z,0.00
2019-02-28T01:41:04.246Z,0.00
2019-02-28T01:42:04.198Z,0.00
2019-02-28T01:43:04.151Z,0.00
2019-02-28T01:44:04.107Z,0.00
2019-02-28T01:45:04.059Z,0.00
2019-02-28T01:46:04.012Z,0.00
2019-02-28T01:47:04.016Z,0.00
2019-02-28T01:48:03.921Z,0.00
2019-02-28T01:49:03.871Z,0.00
2019-02-28T01:50:03.826Z,0.00
2019-02-28T01:51:03.805Z,0.00
2019-02-28T01:52:03.736Z,0.00
2019-02-28T01:53:03.686Z,0.00
2019-02-28T01:54:03.641Z,0.00
2019-02-28T01:55:03.594Z,0.00
2019-02-28T01:56:03.573Z,0.00
2019-02-28T01:57:03.503Z,0.00
2019-02-28T01:58:03.455Z,0.00
2019-02-28T01:59:03.410Z,0.00
2019-02-28T02:00:03.361Z,0.00
2019-02-28T02:01:03.338Z,0.00
2019-02-28T02:02:06.652Z,0.00
2019-02-28T02:03:03.223Z,0.00
2019-02-28T02:04:03.174Z,0.00
2019-02-28T02:05:03.129Z,0.00
2019-02-28T02:06:03.083Z,0.00
2019-02-28T02:07:03.038Z,0.00
2019-02-28T02:08:06.566Z,0.00
2019-02-28T02:09:02.943Z,0.00
2019-02-28T02:10:02.897Z,0.00
2019-02-28T02:11:02.851Z,0.00
2019-02-28T02:12:02.804Z,0.00
2019-02-28T02:13:03.482Z,0.00
2019-02-28T02:14:02.711Z,0.00
2019-02-28T02:15:02.666Z,0.00
2019-02-28T02:16:02.617Z,0.00
2019-02-28T02:17:02.572Z,0.00
2019-02-28T02:18:02.525Z,0.00
2019-02-28T02:19:02.479Z,0.00
2019-02-28T02:20:02.431Z,0.00
2019-02-28T02:21:02.386Z,0.00
2019-02-28T02:22:02.339Z,0.00
2019-02-28T02:23:02.297Z,0.00
2019-02-28T02:24:02.247Z,0.00
2019-02-28T02:25:02.845Z,0.00
2019-02-28T02:26:02.153Z,0.00
2019-02-28T02:27:02.106Z,0.00
2019-02-28T02:28:02.060Z,0.00
2019-02-28T02:29:02.032Z,0.00
2019-02-28T02:30:01.968Z,0.00
2019-02-28T02:31:01.924Z,0.00
2019-02-28T02:32:02.625Z,0.00
2019-02-28T02:33:01.837Z,0.00
2019-02-28T02:34:01.789Z,0.00
2019-02-28T02:35:08.127Z,0.00
2019-02-28T02:36:01.699Z,0.00
2019-02-28T02:37:01.644Z,0.00
2019-02-28T02:38:03.682Z,0.00
2019-02-28T02:39:01.549Z,0.00
2019-02-28T02:40:01.503Z,0.00
2019-02-28T02:41:01.458Z,0.00
2019-02-28T02:42:01.410Z,0.00
2019-02-28T02:43:01.368Z,0.00
2019-02-28T02:44:01.328Z,0.00
2019-02-28T02:45:05.101Z,0.00
2019-02-28T02:46:01.225Z,0.00
2019-02-28T02:47:01.178Z,0.00
2019-02-28T02:48:05.261Z,0.00
2019-02-28T02:49:01.085Z,0.00
2019-02-28T02:50:01.038Z,0.00
2019-02-28T02:51:00.991Z,0.00
2019-02-28T02:52:00.945Z,0.00
2019-02-28T02:53:05.013Z,0.00
2019-02-28T02:54:00.852Z,0.00
2019-02-28T02:55:00.805Z,0.00
2019-02-28T02:56:03.842Z,0.00
2019-02-28T02:57:00.718Z,0.00
2019-02-28T02:58:00.667Z,0.00
2019-02-28T02:59:02.106Z,0.00
2019-02-28T03:00:00.573Z,0.00
2019-02-28T03:01:00.527Z,0.00
2019-02-28T03:02:00.485Z,0.00
2019-02-28T03:03:00.434Z,0.00
2019-02-28T03:04:00.387Z,0.00
2019-02-28T03:05:00.382Z,0.00
2019-02-28T03:06:00.294Z,0.00
2019-02-28T03:07:00.251Z,0.00
2019-02-28T03:08:01.107Z,0.00
2019-02-28T03:09:00.154Z,0.00
2019-02-28T03:10:00.199Z,0.00
2019-02-28T03:11:00.065Z,0.00
2019-02-28T03:12:00.015Z,0.00
2019-02-28T03:12:59.969Z,0.00
2019-02-28T03:13:59.922Z,0.00
2019-02-28T03:14:59.883Z,0.00
2019-02-28T03:16:00.534Z,0.00
2019-02-28T03:16:59.785Z,0.00
2019-02-28T03:17:59.735Z,0.00
2019-02-28T03:18:59.690Z,0.00
2019-02-28T03:19:59.644Z,0.00
2019-02-28T03:20:59.597Z,0.00
2019-02-28T03:21:59.555Z,0.00
2019-02-28T03:23:02.236Z,0.00
2019-02-28T03:23:59.457Z,0.00
2019-02-28T03:24:59.411Z,0.00
2019-02-28T03:26:05.361Z,0.00
2019-02-28T03:26:59.335Z,0.00
2019-02-28T03:27:59.280Z,0.00
2019-02-28T03:28:59.226Z,0.00
2019-02-28T03:29:59.195Z,0.00
2019-02-28T03:30:59.194Z,0.00
2019-02-28T03:31:59.820Z,0.00
2019-02-28T03:32:59.047Z,0.00
2019-02-28T03:34:10.484Z,0.00
2019-02-28T03:34:59.533Z,0.00
2019-02-28T03:35:59.011Z,0.00
2019-02-28T03:36:58.857Z,0.00
2019-02-28T03:37:58.833Z,0.00
2019-02-28T03:38:58.767Z,0.00
2019-02-28T03:40:04.243Z,0.00
2019-02-28T03:40:58.667Z,0.00
2019-02-28T03:41:58.621Z,0.00
2019-02-28T03:43:05.530Z,0.00
2019-02-28T03:43:58.528Z,0.00
2019-02-28T03:44:58.493Z,0.00
2019-02-28T03:45:58.434Z,0.00
2019-02-28T03:46:58.390Z,0.00
2019-02-28T03:47:59.695Z,0.00
2019-02-28T03:48:58.294Z,0.00
2019-02-28T03:49:58.249Z,0.00
2019-02-28T03:50:58.203Z,0.00
2019-02-28T03:52:05.418Z,0.00
2019-02-28T03:52:58.112Z,0.00
2019-02-28T03:53:58.070Z,0.00
2019-02-28T03:55:03.395Z,0.00
2019-02-28T03:55:57.969Z,0.00
2019-02-28T03:56:57.923Z,0.00
2019-02-28T03:58:04.370Z,0.00
2019-02-28T03:58:57.834Z,0.00
2019-02-28T03:59:57.784Z,0.00
2019-02-28T04:00:57.738Z,0.00
2019-02-28T04:01:57.691Z,0.00
2019-02-28T04:02:59.069Z,0.00
2019-02-28T04:03:57.599Z,0.00
2019-02-28T04:04:57.550Z,0.00
2019-02-28T04:06:02.892Z,0.00
2019-02-28T04:06:57.458Z,0.00
2019-02-28T04:07:57.411Z,0.00
2019-02-28T04:08:57.365Z,0.00
2019-02-28T04:09:57.319Z,0.00
2019-02-28T04:10:57.273Z,0.00
2019-02-28T04:11:57.226Z,0.00
2019-02-28T04:12:57.178Z,0.00
2019-02-28T04:13:57.133Z,0.00
2019-02-28T04:14:57.087Z,0.00
2019-02-28T04:16:08.690Z,0.00
2019-02-28T04:16:56.993Z,0.00
2019-02-28T04:17:56.946Z,0.00
2019-02-28T04:18:56.900Z,0.00
2019-02-28T04:19:59.986Z,0.00
2019-02-28T04:20:56.806Z,0.00
2019-02-28T04:21:56.761Z,0.00
2019-02-28T04:23:00.085Z,0.00
2019-02-28T04:23:56.667Z,0.00
2019-02-28T04:24:56.656Z,0.00
2019-02-28T04:25:57.806Z,0.00
2019-02-28T04:26:56.529Z,0.00
2019-02-28T04:27:56.481Z,0.00
2019-02-28T04:28:56.440Z,0.00
2019-02-28T04:29:56.389Z,0.00
2019-02-28T04:30:56.342Z,0.00
2019-02-28T04:31:58.045Z,0.00
2019-02-28T04:33:01.129Z,0.00
2019-02-28T04:33:56.202Z,0.00
2019-02-28T04:34:56.156Z,0.00
2019-02-28T04:35:56.818Z,0.00
2019-02-28T04:36:56.062Z,0.00
2019-02-28T04:37:56.018Z,0.00
2019-02-28T04:38:55.972Z,0.00
2019-02-28T04:39:56.023Z,0.00
2019-02-28T04:40:58.777Z,0.00
2019-02-28T04:41:55.830Z,0.00
2019-02-28T04:42:55.783Z,0.00
2019-02-28T04:43:55.737Z,0.00
2019-02-28T04:44:55.691Z,0.00
2019-02-28T04:45:57.661Z,0.00
2019-02-28T04:46:55.598Z,0.00
2019-02-28T04:47:55.549Z,0.00
2019-02-28T04:48:55.504Z,0.00
2019-02-28T04:49:57.044Z,0.00
2019-02-28T04:50:55.410Z,0.00
2019-02-28T04:51:55.364Z,0.00
2019-02-28T04:52:55.317Z,0.00
2019-02-28T04:53:55.271Z,0.00
2019-02-28T04:54:55.225Z,0.00
2019-02-28T04:55:55.178Z,0.00
2019-02-28T04:56:55.131Z,0.00
2019-02-28T04:57:55.085Z,0.00
2019-02-28T04:58:56.500Z,0.00
2019-02-28T04:59:55.042Z,0.00
2019-02-28T05:00:54.945Z,0.00
2019-02-28T05:01:54.899Z,0.00
2019-02-28T05:02:55.087Z,0.00
2019-02-28T05:03:54.806Z,0.00
2019-02-28T05:04:54.759Z,0.00
2019-02-28T05:05:54.713Z,0.00
2019-02-28T05:06:55.153Z,0.00
2019-02-28T05:07:54.619Z,0.00
2019-02-28T05:08:54.573Z,0.00
2019-02-28T05:09:54.527Z,0.00
2019-02-28T05:10:55.849Z,0.00
2019-02-28T05:11:54.441Z,0.00
2019-02-28T05:12:54.387Z,0.00
2019-02-28T05:13:54.340Z,0.00
2019-02-28T05:14:55.253Z,0.00
2019-02-28T05:15:54.247Z,0.00
2019-02-28T05:16:54.207Z,0.00
2019-02-28T05:17:55.890Z,0.00
2019-02-28T05:18:54.109Z,0.00
2019-02-28T05:19:55.199Z,0.00
2019-02-28T05:20:54.015Z,0.00
2019-02-28T05:21:54.331Z,0.00
2019-02-28T05:22:53.976Z,0.00
2019-02-28T05:23:53.874Z,0.00
2019-02-28T05:24:53.829Z,0.00
2019-02-28T05:25:53.782Z,0.00
2019-02-28T05:26:53.738Z,0.00
2019-02-28T05:27:53.695Z,0.00
2019-02-28T05:28:53.643Z,0.00
2019-02-28T05:29:53.595Z,0.00
2019-02-28T05:30:53.879Z,0.00
2019-02-28T05:31:53.502Z,0.00
2019-02-28T05:32:53.456Z,0.00
2019-02-28T05:33:53.409Z,0.00
2019-02-28T05:34:53.363Z,0.00
2019-02-28T05:35:53.316Z,0.00
2019-02-28T05:36:53.272Z,0.00
2019-02-28T05:37:53.223Z,0.00
2019-02-28T05:38:53.532Z,0.00
2019-02-28T05:39:53.130Z,0.00
2019-02-28T05:40:53.083Z,0.00
2019-02-28T05:41:53.038Z,0.00
2019-02-28T05:42:54.718Z,0.00
2019-02-28T05:43:52.993Z,0.00
2019-02-28T05:44:52.897Z,0.00
2019-02-28T05:45:52.850Z,0.00
2019-02-28T05:46:57.601Z,0.00
2019-02-28T05:47:52.757Z,0.00
2019-02-28T05:48:52.710Z,0.00
2019-02-28T05:49:52.664Z,0.00
2019-02-28T05:50:53.297Z,0.00
2019-02-28T05:51:52.571Z,0.00
2019-02-28T05:52:52.524Z,0.00
2019-02-28T05:53:52.478Z,0.00
2019-02-28T05:54:52.431Z,0.00
2019-02-28T05:55:52.384Z,0.00
2019-02-28T05:56:52.338Z,0.00
2019-02-28T05:57:52.292Z,0.00
2019-02-28T05:58:52.511Z,0.00
2019-02-28T05:59:52.200Z,0.00
2019-02-28T06:00:52.151Z,0.00
2019-02-28T06:01:52.105Z,0.00
2019-02-28T06:02:54.463Z,0.00
2019-02-28T06:03:52.012Z,0.00
2019-02-28T06:04:52.014Z,0.00
2019-02-28T06:05:51.970Z,0.00
2019-02-28T06:06:54.658Z,0.00
2019-02-28T06:07:51.825Z,0.00
2019-02-28T06:08:51.779Z,0.00
2019-02-28T06:09:51.733Z,0.00
2019-02-28T06:10:51.686Z,0.00
2019-02-28T06:11:51.639Z,0.00
2019-02-28T06:12:51.595Z,0.00
2019-02-28T06:13:52.851Z,0.00
2019-02-28T06:14:51.500Z,0.00
2019-02-28T06:15:51.453Z,0.00
2019-02-28T06:16:51.406Z,0.00
2019-02-28T06:17:54.671Z,0.00
2019-02-28T06:18:51.314Z,0.00
2019-02-28T06:19:51.266Z,0.00
2019-02-28T06:20:52.187Z,0.00
2019-02-28T06:21:52.977Z,0.00
2019-02-28T06:22:51.127Z,0.00
2019-02-28T06:23:51.080Z,0.00
2019-02-28T06:24:51.034Z,0.00
2019-02-28T06:25:50.989Z,4.00
2019-02-28T06:26:50.947Z,4.00
2019-02-28T06:27:50.893Z,4.00
2019-02-28T06:28:50.848Z,4.00
2019-02-28T06:29:50.800Z,4.00
2019-02-28T06:30:50.756Z,4.00
2019-02-28T06:31:50.708Z,4.00
2019-02-28T06:32:50.661Z,4.00
2019-02-28T06:33:50.614Z,4.00
2019-02-28T06:34:50.570Z,0.00
2019-02-28T06:35:53.690Z,0.00
2019-02-28T06:36:50.475Z,0.00
2019-02-28T06:37:50.429Z,0.00
2019-02-28T06:38:51.467Z,0.00
2019-02-28T06:39:50.336Z,0.00
2019-02-28T06:40:50.289Z,4.00
2019-02-28T06:41:50.248Z,4.00
2019-02-28T06:42:50.196Z,4.00
2019-02-28T06:43:52.865Z,4.00
2019-02-28T06:44:50.102Z,4.00
2019-02-28T06:45:50.057Z,4.00
2019-02-28T06:46:50.013Z,4.00
2019-02-28T06:47:50.243Z,4.00
2019-02-28T06:48:49.967Z,4.00
2019-02-28T06:49:49.871Z,4.00
2019-02-28T06:50:49.823Z,0.00
2019-02-28T06:51:51.343Z,4.00
2019-02-28T06:52:49.731Z,4.00
2019-02-28T06:53:49.684Z,8.00
2019-02-28T06:54:49.638Z,4.00
2019-02-28T06:55:49.591Z,8.00
2019-02-28T06:56:49.547Z,8.00
2019-02-28T06:57:49.498Z,12.00
2019-02-28T06:58:49.453Z,8.00
2019-02-28T06:59:49.413Z,12.00
2019-02-28T07:00:50.516Z,12.00
2019-02-28T07:01:49.313Z,12.00
2019-02-28T07:02:50.147Z,12.00
2019-02-28T07:03:53.519Z,12.00
2019-02-28T07:04:49.486Z,12.00
2019-02-28T07:05:49.127Z,12.00
2019-02-28T07:06:49.080Z,12.00
2019-02-28T07:07:49.969Z,16.00
2019-02-28T07:08:48.987Z,16.00
2019-02-28T07:09:48.943Z,16.00
2019-02-28T07:10:49.320Z,12.00
2019-02-28T07:11:51.307Z,16.00
2019-02-28T07:12:48.806Z,16.00
2019-02-28T07:13:48.756Z,16.00
2019-02-28T07:14:49.587Z,12.00
2019-02-28T07:15:48.666Z,12.00
2019-02-28T07:16:48.616Z,16.00
2019-02-28T07:17:48.576Z,16.00
2019-02-28T07:18:52.814Z,16.00
2019-02-28T07:19:48.476Z,16.00
2019-02-28T07:20:48.430Z,16.00
2019-02-28T07:21:48.385Z,16.00
2019-02-28T07:22:48.345Z,20.00
2019-02-28T07:23:48.293Z,16.00
2019-02-28T07:24:48.265Z,16.00
2019-02-28T07:25:48.199Z,16.00
2019-02-28T07:26:48.315Z,16.00
2019-02-28T07:27:48.109Z,20.00
2019-02-28T07:28:48.061Z,20.00
2019-02-28T07:29:48.016Z,16.00
2019-02-28T07:30:50.307Z,16.00
2019-02-28T07:31:47.931Z,16.00
2019-02-28T07:32:47.884Z,16.00
2019-02-28T07:33:47.830Z,16.00
2019-02-28T07:34:47.788Z,20.00
2019-02-28T07:35:47.740Z,20.00
2019-02-28T07:36:47.692Z,20.00
2019-02-28T07:37:53.398Z,20.00
2019-02-28T07:38:47.604Z,20.00
2019-02-28T07:39:47.554Z,20.00
2019-02-28T07:40:49.411Z,20.00
2019-02-28T07:41:47.462Z,20.00
2019-02-28T07:42:47.441Z,20.00
2019-02-28T07:43:47.424Z,20.00
2019-02-28T07:44:47.329Z,20.00
2019-02-28T07:45:47.287Z,20.00
2019-02-28T07:46:47.234Z,20.00
2019-02-28T07:47:51.494Z,24.00
2019-02-28T07:48:47.155Z,24.00
2019-02-28T07:49:47.108Z,20.00
2019-02-28T07:50:47.730Z,20.00
2019-02-28T07:51:47.003Z,24.00
2019-02-28T07:52:46.961Z,24.00
2019-02-28T07:53:46.964Z,20.00
2019-02-28T07:54:47.457Z,24.00
2019-02-28T07:55:46.821Z,24.00
2019-02-28T07:56:46.775Z,24.00
2019-02-28T07:57:50.952Z,20.00
2019-02-28T07:58:46.683Z,24.00
2019-02-28T07:59:46.638Z,20.00
2019-02-28T08:00:48.411Z,24.00
2019-02-28T08:01:46.548Z,20.00
2019-02-28T08:02:46.503Z,20.00
2019-02-28T08:03:46.463Z,20.00
2019-02-28T08:04:46.410Z,20.00
2019-02-28T08:05:46.365Z,20.00
2019-02-28T08:06:46.327Z,24.00
2019-02-28T08:07:50.937Z,24.00
2019-02-28T08:08:46.228Z,20.00
2019-02-28T08:09:46.182Z,20.00
2019-02-28T08:10:47.987Z,24.00
2019-02-28T08:11:46.092Z,24.00
2019-02-28T08:12:46.050Z,24.00
2019-02-28T08:13:46.000Z,24.00
2019-02-28T08:14:47.082Z,28.00
2019-02-28T08:15:45.908Z,32.00
2019-02-28T08:16:45.913Z,36.00
2019-02-28T08:17:45.818Z,44.00
2019-02-28T08:18:45.773Z,56.00
2019-02-28T08:19:45.731Z,68.00
2019-02-28T08:20:45.681Z,68.00
2019-02-28T08:21:50.226Z,64.00
2019-02-28T08:22:45.592Z,52.00
2019-02-28T08:23:45.546Z,36.00
2019-02-28T08:24:45.505Z,32.00
2019-02-28T08:25:45.455Z,28.00
2019-02-28T08:26:45.412Z,28.00
2019-02-28T08:27:45.366Z,20.00
2019-02-28T08:28:45.324Z,20.00
2019-02-28T08:29:46.058Z,20.00
2019-02-28T08:30:47.278Z,24.00
2019-02-28T08:31:45.196Z,24.00
2019-02-28T08:32:47.078Z,24.00
2019-02-28T08:33:48.156Z,24.00
2019-02-28T08:34:46.866Z,24.00
2019-02-28T08:35:45.006Z,24.00
2019-02-28T08:36:46.917Z,24.00
2019-02-28T08:37:44.965Z,24.00
2019-02-28T08:38:44.872Z,24.00
2019-02-28T08:39:44.823Z,24.00
2019-02-28T08:40:50.492Z,20.00
2019-02-28T08:41:44.733Z,20.00
2019-02-28T08:42:44.688Z,20.00
2019-02-28T08:43:47.594Z,24.00
2019-02-28T08:44:44.598Z,24.00
2019-02-28T08:45:44.552Z,24.00
2019-02-28T08:46:46.548Z,32.00
2019-02-28T08:47:44.463Z,36.00
2019-02-28T08:48:44.416Z,36.00
2019-02-28T08:49:45.518Z,32.00
2019-02-28T08:50:44.328Z,32.00
2019-02-28T08:51:44.281Z,36.00
2019-02-28T08:52:44.237Z,36.00
2019-02-28T08:53:44.193Z,28.00
2019-02-28T08:54:44.148Z,28.00
2019-02-28T08:55:44.414Z,28.00
2019-02-28T08:56:46.261Z,24.00
2019-02-28T08:57:44.010Z,24.00
2019-02-28T08:58:43.970Z,28.00
2019-02-28T08:59:43.920Z,24.00
2019-02-28T09:00:43.876Z,24.00
2019-02-28T09:01:44.289Z,24.00
2019-02-28T09:02:43.786Z,20.00
2019-02-28T09:03:43.742Z,20.00
2019-02-28T09:04:44.905Z,20.00
2019-02-28T09:05:43.652Z,20.00
2019-02-28T09:06:43.607Z,24.00
2019-02-28T09:07:43.558Z,20.00
2019-02-28T09:08:43.514Z,20.00
2019-02-28T09:09:43.469Z,20.00
2019-02-28T09:10:43.731Z,20.00
2019-02-28T09:11:43.379Z,20.00
2019-02-28T09:12:43.334Z,20.00
2019-02-28T09:13:43.648Z,20.00
2019-02-28T09:14:43.244Z,20.00
2019-02-28T09:15:43.197Z,20.00
2019-02-28T09:16:43.153Z,20.00
2019-02-28T09:17:43.108Z,20.00
2019-02-28T09:18:44.790Z,16.00
2019-02-28T09:19:43.021Z,20.00
2019-02-28T09:20:45.068Z,20.00
2019-02-28T09:21:42.930Z,16.00
2019-02-28T09:22:42.881Z,20.00
2019-02-28T09:23:42.835Z,20.00
2019-02-28T09:24:43.689Z,16.00
2019-02-28T09:25:42.749Z,16.00
2019-02-28T09:26:42.701Z,20.00
2019-02-28T09:27:42.655Z,20.00
2019-02-28T09:28:44.365Z,20.00
2019-02-28T09:29:42.565Z,20.00
2019-02-28T09:30:42.519Z,20.00
2019-02-28T09:31:42.474Z,20.00
2019-02-28T09:32:45.250Z,20.00
2019-02-28T09:33:42.384Z,20.00
2019-02-28T09:34:42.339Z,20.00
2019-02-28T09:35:45.539Z,16.00
2019-02-28T09:36:42.247Z,16.00
2019-02-28T09:37:42.203Z,20.00
2019-02-28T09:38:45.000Z,16.00
2019-02-28T09:39:42.111Z,16.00
2019-02-28T09:40:42.067Z,16.00
2019-02-28T09:41:42.021Z,16.00
2019-02-28T09:42:41.975Z,16.00
2019-02-28T09:43:41.980Z,16.00
2019-02-28T09:44:41.885Z,16.00
2019-02-28T09:45:41.842Z,16.00
2019-02-28T09:46:41.794Z,12.00
2019-02-28T09:47:41.748Z,12.00
2019-02-28T09:48:41.703Z,16.00
2019-02-28T09:49:44.256Z,12.00
2019-02-28T09:50:41.620Z,16.00
2019-02-28T09:51:42.547Z,12.00
2019-02-28T09:52:42.542Z,16.00
2019-02-28T09:53:41.477Z,12.00
2019-02-28T09:54:42.109Z,12.00
2019-02-28T09:55:41.385Z,16.00
2019-02-28T09:56:44.517Z,16.00
2019-02-28T09:57:41.295Z,12.00
2019-02-28T09:58:41.249Z,16.00
2019-02-28T09:59:41.203Z,16.00
2019-02-28T10:00:43.375Z,12.00
2019-02-28T10:01:42.464Z,12.00
2019-02-28T10:02:44.058Z,12.00
2019-02-28T10:03:41.022Z,12.00
2019-02-28T10:04:41.027Z,16.00
2019-02-28T10:05:42.363Z,16.00
2019-02-28T10:06:40.888Z,12.00
2019-02-28T10:07:40.840Z,16.00
2019-02-28T10:08:40.797Z,16.00
2019-02-28T10:09:44.440Z,16.00
2019-02-28T10:10:40.703Z,16.00
2019-02-28T10:11:40.683Z,16.00
2019-02-28T10:12:43.058Z,16.00
2019-02-28T10:13:40.567Z,16.00
2019-02-28T10:14:40.526Z,12.00
2019-02-28T10:15:41.860Z,16.00
2019-02-28T10:16:40.431Z,12.00
2019-02-28T10:17:42.193Z,12.00
2019-02-28T10:18:40.339Z,12.00
2019-02-28T10:19:45.571Z,12.00
2019-02-28T10:20:40.252Z,12.00
2019-02-28T10:21:40.203Z,12.00
2019-02-28T10:22:40.160Z,12.00
2019-02-28T10:23:40.111Z,12.00
2019-02-28T10:24:40.066Z,12.00
2019-02-28T10:25:43.456Z,12.00
2019-02-28T10:26:39.976Z,12.00
2019-02-28T10:27:39.981Z,16.00
2019-02-28T10:28:39.884Z,12.00
2019-02-28T10:29:41.814Z,16.00
2019-02-28T10:30:39.795Z,12.00
2019-02-28T10:31:39.750Z,12.00
2019-02-28T10:32:40.358Z,12.00
2019-02-28T10:33:39.657Z,12.00
2019-02-28T10:34:39.611Z,12.00
2019-02-28T10:35:39.565Z,12.00
2019-02-28T10:36:39.520Z,12.00
2019-02-28T10:37:39.474Z,8.00
2019-02-28T10:38:39.430Z,8.00
2019-02-28T10:39:40.297Z,12.00
2019-02-28T10:40:39.336Z,12.00
2019-02-28T10:41:39.295Z,12.00
2019-02-28T10:42:40.340Z,12.00
2019-02-28T10:43:39.212Z,12.00
2019-02-28T10:44:39.154Z,12.00
2019-02-28T10:45:42.162Z,12.00
2019-02-28T10:46:39.065Z,12.00
2019-02-28T10:47:39.017Z,12.00
2019-02-28T10:48:50.251Z,12.00
2019-02-28T10:49:38.926Z,8.00
2019-02-28T10:50:38.882Z,12.00
2019-02-28T10:51:38.834Z,12.00
2019-02-28T10:52:38.790Z,12.00
2019-02-28T10:53:39.357Z,12.00
2019-02-28T10:54:38.699Z,12.00
2019-02-28T10:55:38.656Z,12.00
2019-02-28T10:56:39.150Z,12.00
2019-02-28T10:57:40.464Z,12.00
2019-02-28T10:58:38.515Z,8.00
2019-02-28T10:59:38.471Z,12.00
2019-02-28T11:00:38.426Z,12.00
2019-02-28T11:01:41.540Z,12.00
2019-02-28T11:02:38.333Z,12.00
2019-02-28T11:03:38.288Z,8.00
2019-02-28T11:04:42.864Z,8.00
2019-02-28T11:05:38.197Z,8.00
2019-02-28T11:06:38.151Z,8.00
2019-02-28T11:07:38.651Z,8.00
2019-02-28T11:08:38.058Z,12.00
2019-02-28T11:09:38.014Z,8.00
2019-02-28T11:10:37.975Z,8.00
2019-02-28T11:11:37.971Z,8.00
2019-02-28T11:12:37.877Z,8.00
2019-02-28T11:13:37.832Z,8.00
2019-02-28T11:14:38.641Z,8.00
2019-02-28T11:15:37.740Z,8.00
2019-02-28T11:16:37.694Z,8.00
2019-02-28T11:17:37.647Z,8.00
2019-02-28T11:18:37.604Z,8.00
2019-02-28T11:19:37.557Z,8.00
2019-02-28T11:20:37.510Z,8.00
2019-02-28T11:21:37.465Z,8.00
2019-02-28T11:22:39.908Z,8.00
2019-02-28T11:23:37.389Z,8.00
2019-02-28T11:24:37.331Z,8.00
2019-02-28T11:25:37.282Z,8.00
2019-02-28T11:26:37.236Z,8.00
2019-02-28T11:27:37.191Z,8.00
2019-02-28T11:28:37.144Z,8.00
2019-02-28T11:29:37.100Z,4.00
2019-02-28T11:30:37.053Z,4.00
2019-02-28T11:31:37.010Z,4.00
2019-02-28T11:32:36.962Z,4.00
2019-02-28T11:33:39.705Z,8.00
2019-02-28T11:34:36.872Z,4.00
2019-02-28T11:35:36.829Z,4.00
2019-02-28T11:36:36.780Z,4.00
2019-02-28T11:37:36.734Z,8.00
2019-02-28T11:38:36.688Z,8.00
2019-02-28T11:39:36.644Z,4.00
2019-02-28T11:40:36.596Z,8.00
2019-02-28T11:41:36.551Z,4.00
2019-02-28T11:42:36.504Z,8.00
2019-02-28T11:43:38.390Z,8.00
2019-02-28T11:44:36.424Z,8.00
2019-02-28T11:45:36.365Z,8.00
2019-02-28T11:46:36.741Z,8.00
2019-02-28T11:47:36.272Z,4.00
2019-02-28T11:48:36.227Z,4.00
2019-02-28T11:49:36.181Z,8.00
2019-02-28T11:50:41.341Z,8.00
2019-02-28T11:51:36.088Z,4.00
2019-02-28T11:52:36.043Z,8.00
2019-02-28T11:53:39.282Z,8.00
2019-02-28T11:54:35.950Z,4.00
2019-02-28T11:55:35.907Z,4.00
2019-02-28T11:56:35.861Z,8.00
2019-02-28T11:57:37.770Z,8.00
2019-02-28T11:58:35.775Z,8.00
2019-02-28T11:59:35.723Z,8.00
2019-02-28T12:00:36.645Z,4.00
2019-02-28T12:01:35.635Z,8.00
2019-02-28T12:02:35.583Z,8.00
2019-02-28T12:03:36.475Z,8.00
2019-02-28T12:04:37.394Z,4.00
2019-02-28T12:05:35.458Z,4.00
2019-02-28T12:06:35.399Z,8.00
2019-02-28T12:07:35.712Z,8.00
2019-02-28T12:08:35.308Z,8.00
2019-02-28T12:09:35.260Z,8.00
2019-02-28T12:10:35.213Z,8.00
2019-02-28T12:11:36.530Z,4.00
2019-02-28T12:12:35.121Z,8.00
2019-02-28T12:13:35.075Z,8.00
2019-02-28T12:14:35.031Z,8.00
2019-02-28T12:15:38.217Z,8.00
2019-02-28T12:16:35.304Z,8.00
2019-02-28T12:17:34.894Z,8.00
2019-02-28T12:18:39.553Z,8.00
2019-02-28T12:19:34.798Z,8.00
2019-02-28T12:20:34.755Z,8.00
2019-02-28T12:21:37.606Z,8.00
2019-02-28T12:22:34.666Z,8.00
2019-02-28T12:23:34.615Z,8.00
2019-02-28T12:24:34.568Z,8.00
2019-02-28T12:25:34.522Z,8.00
2019-02-28T12:26:34.522Z,4.00
2019-02-28T12:27:34.433Z,8.00
2019-02-28T12:28:35.224Z,8.00
2019-02-28T12:29:34.339Z,4.00
2019-02-28T12:30:34.292Z,4.00
2019-02-28T12:31:35.670Z,4.00
2019-02-28T12:32:34.199Z,4.00
2019-02-28T12:33:34.153Z,4.00
2019-02-28T12:34:34.109Z,4.00
2019-02-28T12:35:40.030Z,8.00
2019-02-28T12:36:34.066Z,8.00
2019-02-28T12:37:34.449Z,4.00
2019-02-28T12:38:33.924Z,4.00
2019-02-28T12:39:36.316Z,4.00
2019-02-28T12:40:33.833Z,4.00
2019-02-28T12:41:33.786Z,8.00
2019-02-28T12:42:34.628Z,8.00
2019-02-28T12:43:33.696Z,4.00
2019-02-28T12:44:33.647Z,8.00
2019-02-28T12:45:33.651Z,8.00
2019-02-28T12:46:33.557Z,8.00
2019-02-28T12:47:33.511Z,8.00
2019-02-28T12:48:33.463Z,8.00
2019-02-28T12:49:33.417Z,8.00
2019-02-28T12:50:33.372Z,8.00
2019-02-28T12:51:33.324Z,4.00
2019-02-28T12:52:33.277Z,8.00
2019-02-28T12:53:33.235Z,4.00
2019-02-28T12:54:34.129Z,4.00
2019-02-28T12:55:35.415Z,8.00
2019-02-28T12:56:33.094Z,4.00
2019-02-28T12:57:33.048Z,4.00
2019-02-28T12:58:38.871Z,4.00
2019-02-28T12:59:34.766Z,4.00
2019-02-28T13:00:32.908Z,4.00
2019-02-28T13:01:33.328Z,4.00
2019-02-28T13:02:32.816Z,4.00
2019-02-28T13:03:32.771Z,4.00
2019-02-28T13:04:35.792Z,4.00
2019-02-28T13:05:32.683Z,4.00
2019-02-28T13:06:32.636Z,4.00
2019-02-28T13:07:33.946Z,4.00
2019-02-28T13:08:32.543Z,4.00
2019-02-28T13:09:32.497Z,4.00